createdAt,value
2023-05-20T00:01:21.588Z,17.05
2023-05-20T00:03:49.571Z,17.04
2023-05-20T00:06:17.444Z,17.02
2023-05-20T00:08:46.587Z,17.01
2023-05-20T00:11:14.364Z,17.01
2023-05-20T00:13:42.155Z,17.00
2023-05-20T00:16:10.072Z,16.98
2023-05-20T00:18:37.880Z,16.94
2023-05-20T00:21:05.650Z,16.94
2023-05-20T00:23:33.433Z,16.92
2023-05-20T00:26:02.567Z,16.90
2023-05-20T00:28:30.744Z,16.90
2023-05-20T00:30:58.484Z,16.89
2023-05-20T00:33:26.270Z,16.88
2023-05-20T00:35:53.986Z,16.86
2023-05-20T00:38:21.744Z,16.84
2023-05-20T00:40:49.533Z,16.84
2023-05-20T00:43:20.388Z,16.81
2023-05-20T00:45:48.508Z,16.82
2023-05-20T00:48:16.272Z,16.82
2023-05-20T00:50:46.396Z,16.79
2023-05-20T00:53:14.172Z,16.78
2023-05-20T00:55:42.072Z,16.75
2023-05-20T00:58:09.992Z,16.73
2023-05-20T01:00:39.630Z,16.73
2023-05-20T01:03:07.515Z,16.70
2023-05-20T01:05:35.429Z,16.68
2023-05-20T01:08:03.312Z,16.66
2023-05-20T01:10:32.408Z,16.64
2023-05-20T01:13:03.329Z,16.62
2023-05-20T01:15:32.476Z,16.60
2023-05-20T01:18:06.054Z,16.58
2023-05-20T01:20:34.547Z,16.56
2023-05-20T01:23:04.248Z,16.55
2023-05-20T01:25:32.193Z,16.53
2023-05-20T01:28:00.066Z,16.51
2023-05-20T01:30:35.501Z,16.50
2023-05-20T01:33:11.832Z,16.48
2023-05-20T01:35:42.378Z,16.47
2023-05-20T01:38:12.410Z,16.44
2023-05-20T01:40:41.914Z,16.43
2023-05-20T01:43:10.681Z,16.42
2023-05-20T01:45:39.833Z,16.40
2023-05-20T01:48:07.734Z,16.39
2023-05-20T01:50:35.515Z,16.37
2023-05-20T01:53:03.277Z,16.35
2023-05-20T01:55:32.538Z,16.35
2023-05-20T01:58:00.417Z,16.35
2023-05-20T02:00:28.334Z,16.31
2023-05-20T02:02:56.355Z,16.31
2023-05-20T02:05:24.123Z,16.31
2023-05-20T02:07:51.934Z,16.31
2023-05-20T02:10:19.709Z,16.30
2023-05-20T02:12:49.416Z,16.27
2023-05-20T02:15:17.350Z,16.25
2023-05-20T02:17:45.138Z,16.25
2023-05-20T02:20:13.993Z,16.24
2023-05-20T02:22:41.934Z,16.21
2023-05-20T02:25:10.850Z,16.20
2023-05-20T02:27:39.882Z,16.18
2023-05-20T02:30:10.468Z,16.14
2023-05-20T02:32:38.339Z,16.14
2023-05-20T02:35:06.822Z,16.13
2023-05-20T02:37:34.612Z,16.13
2023-05-20T02:40:02.366Z,16.04
2023-05-20T02:42:30.124Z,16.09
2023-05-20T02:44:58.852Z,16.08
2023-05-20T02:47:28.648Z,16.07
2023-05-20T02:49:56.609Z,16.05
2023-05-20T02:52:24.654Z,16.04
2023-05-20T02:54:52.849Z,16.02
2023-05-20T02:57:20.715Z,16.00
2023-05-20T02:59:48.444Z,15.99
2023-05-20T03:02:16.182Z,15.98
2023-05-20T03:04:46.859Z,15.96
2023-05-20T03:07:17.609Z,15.93
2023-05-20T03:09:45.360Z,15.92
2023-05-20T03:12:13.093Z,15.90
2023-05-20T03:14:40.827Z,15.88
2023-05-20T03:17:09.452Z,15.85
2023-05-20T03:19:37.560Z,15.85
2023-05-20T03:22:07.062Z,15.82
2023-05-20T03:24:34.877Z,15.82
2023-05-20T03:27:02.618Z,15.81
2023-05-20T03:29:31.329Z,15.78
2023-05-20T03:31:59.120Z,15.76
2023-05-20T03:34:28.165Z,15.76
2023-05-20T03:36:55.912Z,15.74
2023-05-20T03:39:25.132Z,15.73
2023-05-20T03:41:52.875Z,15.72
2023-05-20T03:44:20.617Z,15.69
2023-05-20T03:46:48.404Z,15.69
2023-05-20T03:49:16.188Z,15.68
2023-05-20T03:51:43.914Z,15.67
2023-05-20T03:54:11.952Z,15.67
2023-05-20T03:56:41.027Z,15.66
2023-05-20T03:59:08.752Z,15.64
2023-05-20T04:01:37.342Z,15.63
2023-05-20T04:04:06.020Z,15.61
2023-05-20T04:06:34.044Z,15.60
2023-05-20T04:09:01.790Z,15.59
2023-05-20T04:11:29.597Z,15.58
2023-05-20T04:14:00.348Z,15.57
2023-05-20T04:16:29.511Z,15.55
2023-05-20T04:18:59.143Z,15.55
2023-05-20T04:21:27.316Z,15.54
2023-05-20T04:23:55.134Z,15.52
2023-05-20T04:26:22.886Z,15.52
2023-05-20T04:28:50.684Z,15.50
2023-05-20T04:31:20.868Z,15.49
2023-05-20T04:33:48.702Z,15.48
2023-05-20T04:36:17.419Z,15.46
2023-05-20T04:38:45.439Z,15.44
2023-05-20T04:41:13.181Z,15.42
2023-05-20T04:43:40.965Z,15.41
2023-05-20T04:46:08.886Z,15.40
2023-05-20T04:48:38.186Z,15.37
2023-05-20T04:51:05.956Z,15.37
2023-05-20T04:53:34.010Z,15.36
2023-05-20T04:56:01.832Z,15.35
2023-05-20T04:58:30.302Z,15.33
2023-05-20T05:00:58.171Z,15.33
2023-05-20T05:03:26.060Z,15.33
2023-05-20T05:05:58.353Z,15.33
2023-05-20T05:08:26.430Z,15.32
2023-05-20T05:10:54.267Z,15.35
2023-05-20T05:13:21.981Z,15.34
2023-05-20T05:15:49.737Z,15.36
2023-05-20T05:18:18.601Z,15.37
2023-05-20T05:20:46.462Z,15.38
2023-05-20T05:23:15.603Z,15.39
2023-05-20T05:25:43.430Z,15.41
2023-05-20T05:28:11.133Z,15.43
2023-05-20T05:30:38.886Z,15.44
2023-05-20T05:33:06.750Z,15.46
2023-05-20T05:35:34.790Z,15.48
2023-05-20T05:38:03.158Z,15.51
2023-05-20T05:40:32.321Z,15.54
2023-05-20T05:43:00.215Z,15.56
2023-05-20T05:45:28.051Z,15.57
2023-05-20T05:47:56.014Z,15.59
2023-05-20T05:50:23.776Z,15.60
2023-05-20T05:52:51.545Z,15.63
2023-05-20T05:55:19.353Z,15.65
2023-05-20T05:57:48.461Z,15.65
2023-05-20T06:00:16.862Z,15.66
2023-05-20T06:02:44.666Z,15.66
2023-05-20T06:05:12.720Z,15.67
2023-05-20T06:07:40.461Z,15.69
2023-05-20T06:10:09.331Z,15.70
2023-05-20T06:12:37.173Z,15.73
2023-05-20T06:15:08.034Z,15.75
2023-05-20T06:17:35.869Z,15.77
2023-05-20T06:20:04.392Z,15.80
2023-05-20T06:22:32.147Z,15.82
2023-05-20T06:25:02.371Z,15.86
2023-05-20T06:27:30.276Z,15.87
2023-05-20T06:29:57.989Z,15.91
2023-05-20T06:32:27.113Z,15.94
2023-05-20T06:34:54.911Z,15.97
2023-05-20T06:37:24.497Z,15.99
2023-05-20T06:39:54.065Z,16.01
2023-05-20T06:42:22.343Z,16.04
2023-05-20T06:44:50.086Z,16.07
2023-05-20T06:47:18.864Z,16.08
2023-05-20T06:49:47.966Z,16.10
2023-05-20T06:52:15.726Z,16.13
2023-05-20T06:54:44.137Z,16.31
2023-05-20T06:57:12.047Z,16.19
2023-05-20T06:59:39.960Z,16.13
2023-05-20T07:02:07.934Z,16.14
2023-05-20T07:04:36.004Z,16.13
2023-05-20T07:07:05.437Z,16.14
2023-05-20T07:09:33.290Z,16.15
2023-05-20T07:12:01.028Z,16.16
2023-05-20T07:14:28.812Z,16.17
2023-05-20T07:16:56.544Z,16.21
2023-05-20T07:19:24.469Z,16.22
2023-05-20T07:21:52.343Z,16.25
2023-05-20T07:24:21.443Z,16.26
2023-05-20T07:26:49.425Z,16.27
2023-05-20T07:29:17.179Z,16.29
2023-05-20T07:31:45.032Z,16.32
2023-05-20T07:34:12.857Z,16.32
2023-05-20T07:36:40.912Z,16.36
2023-05-20T07:39:13.183Z,16.37
2023-05-20T07:41:44.193Z,16.40
2023-05-20T07:44:13.030Z,16.40
2023-05-20T07:46:42.014Z,16.40
2023-05-20T07:49:09.909Z,16.40
2023-05-20T07:51:37.678Z,16.43
2023-05-20T07:54:05.451Z,16.44
2023-05-20T07:56:33.350Z,16.42
2023-05-20T07:59:03.302Z,16.44
2023-05-20T08:01:31.830Z,16.66
2023-05-20T08:03:59.840Z,16.67
2023-05-20T08:06:29.663Z,16.54
2023-05-20T08:08:57.791Z,16.50
2023-05-20T08:11:25.630Z,16.49
2023-05-20T08:13:53.385Z,16.49
2023-05-20T08:16:23.610Z,16.50
2023-05-20T08:18:51.514Z,16.52
2023-05-20T08:21:19.347Z,16.53
2023-05-20T08:23:47.123Z,16.55
2023-05-20T08:26:14.876Z,16.57
2023-05-20T08:28:42.681Z,16.58
2023-05-20T08:31:10.802Z,16.60
2023-05-20T08:33:39.972Z,16.64
2023-05-20T08:36:08.187Z,16.65
2023-05-20T08:38:36.551Z,16.69
2023-05-20T08:41:04.359Z,16.70
2023-05-20T08:43:32.635Z,16.72
2023-05-20T08:46:02.385Z,16.75
2023-05-20T08:48:31.259Z,16.82
2023-05-20T08:51:01.313Z,16.89
2023-05-20T08:53:29.543Z,16.89
2023-05-20T08:56:02.773Z,16.91
2023-05-20T08:58:30.824Z,16.90
2023-05-20T09:00:59.843Z,16.89
2023-05-20T09:03:28.010Z,16.89
2023-05-20T09:06:04.475Z,16.90
2023-05-20T09:08:34.652Z,16.90
2023-05-20T09:11:02.661Z,16.93
2023-05-20T09:13:32.507Z,16.95
2023-05-20T09:16:02.042Z,16.97
2023-05-20T09:18:30.992Z,16.96
2023-05-20T09:20:59.185Z,17.00
2023-05-20T09:23:27.896Z,17.04
2023-05-20T09:25:57.003Z,17.06
2023-05-20T09:28:25.637Z,17.09
2023-05-20T09:30:59.283Z,17.10
2023-05-20T09:33:29.911Z,17.15
2023-05-20T09:36:04.214Z,17.17
2023-05-20T09:38:37.938Z,17.20
2023-05-20T09:41:09.337Z,17.23
2023-05-20T09:43:37.892Z,17.25
2023-05-20T09:46:06.131Z,17.29
2023-05-20T09:48:36.704Z,17.35
2023-05-20T09:51:06.825Z,17.38
2023-05-20T09:53:34.765Z,17.44
2023-05-20T09:56:02.539Z,17.46
2023-05-20T09:58:32.193Z,17.46
2023-05-20T10:00:59.997Z,17.49
2023-05-20T10:03:28.688Z,17.53
2023-05-20T10:06:17.353Z,17.50
2023-05-20T10:09:01.048Z,17.49
2023-05-20T10:11:39.461Z,17.53
2023-05-20T10:14:20.856Z,17.54
2023-05-20T10:16:52.866Z,17.58
2023-05-20T10:19:32.689Z,17.62
2023-05-20T10:22:02.892Z,17.64
2023-05-20T10:24:32.323Z,17.68
2023-05-20T10:27:02.772Z,17.70
2023-05-20T10:29:43.522Z,17.70
2023-05-20T10:32:11.901Z,17.69
2023-05-20T10:34:47.375Z,17.68
2023-05-20T10:37:24.691Z,17.71
2023-05-20T10:39:52.483Z,17.72
2023-05-20T10:42:30.246Z,17.75
2023-05-20T10:44:59.380Z,17.80
2023-05-20T10:47:27.247Z,17.84
2023-05-20T10:49:55.037Z,17.88
2023-05-20T10:52:23.040Z,17.89
2023-05-20T10:54:57.704Z,17.94
2023-05-20T10:57:27.168Z,17.96
2023-05-20T10:59:54.948Z,17.98
2023-05-20T11:02:27.074Z,18.01
2023-05-20T11:04:57.600Z,18.06
2023-05-20T11:07:29.373Z,18.11
2023-05-20T11:09:57.317Z,18.17
2023-05-20T11:12:27.051Z,18.23
2023-05-20T11:14:55.274Z,18.27
2023-05-20T11:17:24.409Z,18.29
2023-05-20T11:19:52.220Z,18.30
2023-05-20T11:22:20.046Z,18.29
2023-05-20T11:24:47.860Z,18.30
2023-05-20T11:27:15.702Z,18.33
2023-05-20T11:29:43.752Z,18.44
2023-05-20T11:32:11.607Z,18.52
2023-05-20T11:34:41.108Z,18.57
2023-05-20T11:37:09.878Z,18.61
2023-05-20T11:39:38.873Z,18.62
2023-05-20T11:42:07.015Z,18.62
2023-05-20T11:44:34.965Z,18.63
2023-05-20T11:47:04.105Z,18.63
2023-05-20T11:49:40.155Z,18.65
2023-05-20T11:52:12.083Z,18.67
2023-05-20T11:54:39.928Z,18.67
2023-05-20T11:57:07.768Z,18.68
2023-05-20T11:59:36.642Z,18.70
2023-05-20T12:02:04.514Z,18.74
2023-05-20T12:04:32.289Z,18.83
2023-05-20T12:07:00.135Z,18.87
2023-05-20T12:09:29.286Z,18.90
2023-05-20T12:11:57.121Z,18.99
2023-05-20T12:14:24.881Z,18.98
2023-05-20T12:16:53.720Z,18.98
2023-05-20T12:19:21.615Z,19.00
2023-05-20T12:21:49.394Z,18.99
2023-05-20T12:24:17.180Z,19.04
2023-05-20T12:26:46.432Z,19.06
2023-05-20T12:29:14.291Z,19.09
2023-05-20T12:31:42.148Z,19.11
2023-05-20T12:34:09.958Z,19.18
2023-05-20T12:36:37.946Z,19.23
2023-05-20T12:39:06.160Z,19.25
2023-05-20T12:41:33.945Z,19.28
2023-05-20T12:44:03.133Z,19.29
2023-05-20T12:46:31.192Z,19.30
2023-05-20T12:48:59.075Z,19.31
2023-05-20T12:51:26.904Z,19.41
2023-05-20T12:53:54.724Z,19.41
2023-05-20T12:56:23.026Z,19.54
2023-05-20T12:58:50.751Z,19.57
2023-05-20T13:01:19.882Z,19.63
2023-05-20T13:03:48.185Z,19.64
2023-05-20T13:06:16.667Z,19.64
2023-05-20T13:08:45.328Z,19.62
2023-05-20T13:42:45.606Z,19.66
2023-05-20T14:19:01.394Z,20.00
2023-05-20T14:21:29.192Z,19.99
2023-05-20T14:23:56.986Z,19.97
2023-05-20T14:26:24.797Z,19.96
2023-05-20T14:28:52.605Z,19.95
2023-05-20T14:31:20.746Z,19.97
2023-05-20T14:33:48.584Z,19.98
2023-05-20T14:36:17.989Z,19.99
2023-05-20T14:38:47.111Z,20.00
2023-05-20T14:41:15.996Z,20.07
2023-05-20T14:43:43.811Z,20.11
2023-05-20T14:46:12.029Z,20.16
2023-05-20T14:48:39.834Z,20.19
2023-05-20T14:51:07.623Z,20.26
2023-05-20T14:53:36.777Z,20.29
2023-05-20T14:56:04.624Z,20.32
2023-05-20T14:58:32.342Z,20.32
2023-05-20T15:01:00.203Z,20.31
2023-05-20T15:03:28.513Z,20.32
2023-05-20T15:05:56.565Z,20.28
2023-05-20T15:08:24.340Z,20.27
2023-05-20T15:10:53.585Z,20.25
2023-05-20T15:13:21.403Z,20.26
2023-05-20T15:15:49.161Z,20.25
2023-05-20T15:18:17.013Z,20.26
2023-05-20T15:20:45.118Z,20.24
2023-05-20T15:23:13.321Z,20.23
2023-05-20T15:25:41.117Z,20.21
2023-05-20T15:28:10.267Z,20.22
2023-05-20T15:30:38.301Z,20.23
2023-05-20T15:33:06.288Z,20.20
2023-05-20T15:35:34.115Z,20.22
2023-05-20T15:38:01.904Z,20.21
2023-05-20T15:40:29.669Z,20.20
2023-05-20T15:42:58.417Z,20.20
2023-05-20T15:45:28.079Z,20.21
2023-05-20T15:47:55.920Z,20.25
2023-05-20T15:50:23.959Z,20.25
2023-05-20T15:52:52.997Z,20.24
2023-05-20T15:55:23.177Z,20.20
2023-05-20T15:57:51.104Z,20.23
2023-05-20T16:00:20.397Z,20.21
2023-05-20T16:02:49.649Z,20.25
2023-05-20T16:05:17.929Z,20.23
2023-05-20T16:07:46.737Z,20.26
2023-05-20T16:10:14.514Z,20.26
2023-05-20T16:12:42.266Z,20.24
2023-05-20T16:15:11.098Z,20.25
2023-05-20T16:17:39.110Z,20.25
2023-05-20T16:20:10.184Z,20.27
2023-05-20T16:22:38.086Z,20.26
2023-05-20T16:25:06.381Z,20.28
2023-05-20T16:27:34.140Z,20.27
2023-05-20T16:30:01.874Z,20.28
2023-05-20T16:32:29.628Z,20.29
2023-05-20T16:34:57.814Z,20.30
2023-05-20T16:37:26.904Z,20.34
2023-05-20T16:39:54.662Z,20.36
2023-05-20T16:42:22.421Z,20.34
2023-05-20T16:44:52.487Z,20.34
2023-05-20T16:47:20.312Z,20.35
2023-05-20T16:49:48.142Z,20.34
2023-05-20T16:52:16.100Z,20.36
2023-05-20T16:54:45.255Z,20.34
2023-05-20T16:57:14.076Z,20.34
2023-05-20T16:59:41.815Z,20.33
2023-05-20T17:02:09.552Z,20.33
2023-05-20T17:04:37.750Z,20.32
2023-05-20T17:07:09.674Z,20.32
2023-05-20T17:09:37.658Z,20.32
2023-05-20T17:12:07.945Z,20.35
2023-05-20T17:14:37.003Z,20.36
2023-05-20T17:17:05.264Z,20.38
2023-05-20T17:19:33.117Z,20.37
2023-05-20T17:22:00.895Z,20.36
2023-05-20T17:24:28.691Z,20.33
2023-05-20T17:26:56.727Z,20.32
2023-05-20T17:29:25.892Z,20.31
2023-05-20T17:31:53.688Z,20.30
2023-05-20T17:34:21.445Z,20.26
2023-05-20T17:36:49.145Z,20.29
2023-05-20T17:39:16.984Z,20.30
2023-05-20T17:41:45.601Z,20.28
2023-05-20T17:44:13.363Z,20.29
2023-05-20T17:46:42.905Z,20.29
2023-05-20T17:49:10.797Z,20.28
2023-05-20T17:51:38.555Z,20.29
2023-05-20T17:54:06.346Z,20.29
2023-05-20T17:56:34.158Z,20.27
2023-05-20T17:59:01.897Z,20.24
2023-05-20T18:01:29.988Z,20.22
2023-05-20T18:04:03.789Z,20.23
2023-05-20T18:06:34.756Z,20.21
2023-05-20T18:09:03.623Z,20.23
2023-05-20T18:11:31.944Z,20.22
2023-05-20T18:13:59.800Z,20.21
2023-05-20T18:16:28.196Z,20.23
2023-05-20T18:18:56.565Z,20.16
2023-05-20T18:21:26.392Z,20.20
2023-05-20T18:23:54.207Z,20.24
2023-05-20T18:26:22.680Z,20.25
2023-05-20T18:28:50.991Z,20.25
2023-05-20T18:31:18.934Z,20.24
2023-05-20T18:33:46.725Z,20.22
2023-05-20T18:36:14.549Z,20.22
2023-05-20T18:38:44.956Z,20.22
2023-05-20T18:41:12.733Z,20.21
2023-05-20T18:43:40.587Z,20.20
2023-05-20T18:46:08.458Z,20.18
2023-05-20T18:48:36.427Z,20.17
2023-05-20T18:51:04.352Z,20.16
2023-05-20T18:53:32.165Z,20.14
2023-05-20T18:56:03.096Z,20.11
2023-05-20T18:58:31.117Z,20.12
2023-05-20T19:00:58.917Z,20.07
2023-05-20T19:03:26.675Z,20.06
2023-05-20T19:05:54.505Z,20.06
2023-05-20T19:08:23.192Z,20.05
2023-05-20T19:10:51.090Z,20.02
2023-05-20T19:13:20.348Z,20.01
2023-05-20T19:15:48.158Z,20.00
2023-05-20T19:18:16.297Z,20.00
2023-05-20T19:20:44.096Z,19.99
2023-05-20T19:23:11.828Z,19.98
2023-05-20T19:25:39.586Z,19.97
2023-05-20T19:28:07.538Z,19.96
2023-05-20T19:30:36.705Z,19.94
2023-05-20T19:33:06.125Z,19.93
2023-05-20T19:35:35.029Z,19.92
2023-05-20T19:38:04.946Z,19.90
2023-05-20T19:40:32.783Z,19.89
2023-05-20T19:43:00.594Z,19.88
2023-05-20T19:45:28.352Z,19.87
2023-05-20T19:47:58.132Z,19.86
2023-05-20T19:50:25.881Z,19.84
2023-05-20T19:52:53.655Z,19.83
2023-05-20T19:55:21.377Z,19.81
2023-05-20T19:57:53.293Z,19.80
2023-05-20T20:00:21.455Z,19.76
2023-05-20T20:02:49.954Z,19.77
2023-05-20T20:05:22.277Z,19.75
2023-05-20T20:07:51.522Z,19.74
2023-05-20T20:10:19.253Z,19.72
2023-05-20T20:12:46.987Z,19.71
2023-05-20T20:15:15.172Z,19.69
2023-05-20T20:17:45.357Z,19.69
2023-05-20T20:20:14.861Z,19.66
2023-05-20T20:22:43.977Z,19.64
2023-05-20T20:25:13.849Z,19.62
2023-05-20T20:27:43.897Z,19.54
2023-05-20T20:30:13.411Z,19.61
2023-05-20T20:32:41.658Z,19.58
2023-05-20T20:35:10.861Z,19.56
2023-05-20T20:37:38.714Z,19.55
2023-05-20T20:40:13.247Z,19.50
2023-05-20T20:42:44.755Z,19.52
2023-05-20T20:45:13.131Z,19.49
2023-05-20T20:47:41.114Z,19.48
2023-05-20T20:50:09.646Z,19.44
2023-05-20T20:52:38.665Z,19.42
2023-05-20T20:55:09.960Z,19.41
2023-05-20T20:57:37.824Z,19.38
2023-05-20T21:00:08.894Z,19.35
2023-05-20T21:02:36.656Z,19.32
2023-05-20T21:05:04.456Z,19.29
2023-05-20T21:07:32.493Z,19.29
2023-05-20T21:10:00.486Z,19.27
2023-05-20T21:12:29.590Z,19.18
2023-05-20T21:14:57.332Z,19.24
2023-05-20T21:17:25.062Z,19.22
2023-05-20T21:19:54.668Z,19.16
2023-05-20T21:22:22.513Z,19.14
2023-05-20T21:24:50.386Z,19.13
2023-05-20T21:27:18.128Z,19.13
2023-05-20T21:29:48.532Z,19.10
2023-05-20T21:32:16.304Z,19.09
2023-05-20T21:34:44.068Z,19.07
2023-05-20T21:37:11.851Z,19.04
2023-05-20T21:39:39.794Z,19.05
2023-05-20T21:42:07.768Z,19.04
2023-05-20T21:44:35.505Z,19.02
2023-05-20T21:47:04.647Z,19.00
2023-05-20T21:49:33.003Z,18.98
2023-05-20T21:52:00.812Z,18.98
2023-05-20T21:54:28.549Z,18.96
2023-05-20T21:56:56.314Z,18.96
2023-05-20T21:59:24.052Z,18.95
2023-05-20T22:01:51.801Z,18.94
2023-05-20T22:04:21.677Z,18.94
2023-05-20T22:06:50.777Z,18.93
2023-05-20T22:09:18.521Z,18.91
2023-05-20T22:11:48.011Z,18.90
2023-05-20T22:14:16.270Z,18.90
2023-05-20T22:16:46.495Z,18.87
2023-05-20T22:19:15.687Z,18.86
2023-05-20T22:21:50.605Z,18.84
2023-05-20T22:24:19.113Z,18.82
2023-05-20T22:26:46.860Z,18.80
2023-05-20T22:29:14.767Z,18.77
2023-05-20T22:31:42.638Z,18.65
2023-05-20T22:34:10.533Z,18.74
2023-05-20T22:36:39.424Z,18.71
2023-05-20T22:39:08.654Z,18.70
2023-05-20T22:41:36.561Z,18.67
2023-05-20T22:44:04.451Z,18.66
2023-05-20T22:46:32.348Z,18.65
2023-05-20T22:49:01.785Z,18.62
2023-05-20T22:51:31.259Z,18.61
2023-05-20T22:53:58.995Z,18.58
2023-05-20T22:56:29.503Z,18.52
2023-05-20T22:58:57.248Z,18.53
2023-05-20T23:01:25.038Z,18.52
2023-05-20T23:03:53.764Z,18.51
2023-05-20T23:06:22.559Z,18.49
2023-05-20T23:08:50.496Z,18.46
2023-05-20T23:11:18.225Z,18.44
2023-05-20T23:13:47.333Z,18.43
2023-05-20T23:16:15.215Z,18.42
2023-05-20T23:18:43.075Z,18.39
2023-05-20T23:21:10.874Z,18.38
2023-05-20T23:23:38.621Z,18.39
2023-05-20T23:26:06.487Z,18.37
2023-05-20T23:28:34.256Z,18.35
2023-05-20T23:31:03.482Z,18.34
2023-05-20T23:33:31.514Z,18.33
2023-05-20T23:35:59.364Z,18.31
2023-05-20T23:38:27.178Z,18.30
2023-05-20T23:40:54.946Z,18.29
2023-05-20T23:43:22.711Z,18.28
2023-05-20T23:45:50.514Z,18.28
2023-05-20T23:48:19.917Z,18.26
2023-05-20T23:50:48.186Z,18.17
2023-05-20T23:53:15.950Z,18.23
2023-05-20T23:55:45.103Z,18.21
2023-05-20T23:58:12.875Z,18.20
